sensor_id;sensor_type;location;lat;lon;timestamp;pressure;altitude;pressure_sealevel;temperature;humidity
56928;BME280;60850;52.502;13.426;2024-03-02T00:02:01;100199.50;;;8.88;100.00
56928;BME280;60850;52.502;13.426;2024-03-02T00:04:29;100197.75;;;8.87;100.00
56928;BME280;60850;52.502;13.426;2024-03-02T00:06:56;100195.09;;;8.87;100.00
56928;BME280;60850;52.502;13.426;2024-03-02T00:09:26;100193.31;;;8.87;100.00
56928;BME280;60850;52.502;13.426;2024-03-02T00:11:53;100193.28;;;8.89;100.00
56928;BME280;60850;52.502;13.426;2024-03-02T00:14:20;100192.44;;;8.87;100.00
56928;BME280;60850;52.502;13.426;2024-03-02T00:16:52;100190.56;;;8.90;100.00
56928;BME280;60850;52.502;13.426;2024-03-02T00:19:19;100183.38;;;8.94;100.00
56928;BME280;60850;52.502;13.426;2024-03-02T00:21:46;100183.19;;;9.00;100.00
56928;BME280;60850;52.502;13.426;2024-03-02T00:24:19;100177.97;;;8.97;100.00
56928;BME280;60850;52.502;13.426;2024-03-02T00:26:48;100180.75;;;8.92;100.00
56928;BME280;60850;52.502;13.426;2024-03-02T00:29:15;100185.09;;;8.95;100.00
56928;BME280;60850;52.502;13.426;2024-03-02T00:31:45;100178.31;;;8.85;100.00
56928;BME280;60850;52.502;13.426;2024-03-02T00:34:13;100178.16;;;8.91;100.00
56928;BME280;60850;52.502;13.426;2024-03-02T00:36:42;100173.59;;;8.96;100.00
56928;BME280;60850;52.502;13.426;2024-03-02T00:39:11;100171.81;;;8.96;100.00
56928;BME280;60850;52.502;13.426;2024-03-02T00:41:40;100176.25;;;8.94;100.00
56928;BME280;60850;52.502;13.426;2024-03-02T00:44:10;100171.09;;;8.90;100.00
56928;BME280;60850;52.502;13.426;2024-03-02T00:46:40;100177.06;;;8.98;100.00
56928;BME280;60850;52.502;13.426;2024-03-02T00:49:16;100177.34;;;8.89;100.00
56928;BME280;60850;52.502;13.426;2024-03-02T00:51:46;100170.13;;;8.92;100.00
56928;BME280;60850;52.502;13.426;2024-03-02T00:54:14;100174.09;;;8.77;100.00
56928;BME280;60850;52.502;13.426;2024-03-02T00:56:42;100175.03;;;8.76;100.00
56928;BME280;60850;52.502;13.426;2024-03-02T00:59:10;100175.78;;;8.80;100.00
56928;BME280;60850;52.502;13.426;2024-03-02T01:01:37;100190.81;;;8.83;100.00
56928;BME280;60850;52.502;13.426;2024-03-02T01:04:04;100186.47;;;8.78;100.00
56928;BME280;60850;52.502;13.426;2024-03-02T01:06:33;100182.91;;;8.79;100.00
56928;BME280;60850;52.502;13.426;2024-03-02T01:09:01;100182.25;;;8.71;100.00
56928;BME280;60850;52.502;13.426;2024-03-02T01:11:29;100183.03;;;8.75;100.00
56928;BME280;60850;52.502;13.426;2024-03-02T01:13:56;100170.25;;;8.88;100.00
56928;BME280;60850;52.502;13.426;2024-03-02T01:16:23;100165.78;;;8.90;100.00
56928;BME280;60850;52.502;13.426;2024-03-02T01:18:50;100160.53;;;8.87;100.00
56928;BME280;60850;52.502;13.426;2024-03-02T01:21:18;100168.28;;;8.96;100.00
56928;BME280;60850;52.502;13.426;2024-03-02T01:23:46;100168.34;;;8.93;100.00
56928;BME280;60850;52.502;13.426;2024-03-02T01:26:13;100175.56;;;8.89;100.00
56928;BME280;60850;52.502;13.426;2024-03-02T01:28:41;100156.03;;;8.90;100.00
56928;BME280;60850;52.502;13.426;2024-03-02T01:31:08;100158.69;;;8.90;100.00
56928;BME280;60850;52.502;13.426;2024-03-02T01:33:35;100157.44;;;9.02;100.00
56928;BME280;60850;52.502;13.426;2024-03-02T01:36:03;100162.78;;;9.00;100.00
56928;BME280;60850;52.502;13.426;2024-03-02T01:38:30;100164.59;;;9.00;100.00
56928;BME280;60850;52.502;13.426;2024-03-02T01:40:58;100159.44;;;8.95;100.00
56928;BME280;60850;52.502;13.426;2024-03-02T01:43:25;100153.00;;;9.02;100.00
56928;BME280;60850;52.502;13.426;2024-03-02T01:45:53;100150.19;;;9.07;100.00
56928;BME280;60850;52.502;13.426;2024-03-02T01:48:20;100154.00;;;8.98;100.00
56928;BME280;60850;52.502;13.426;2024-03-02T01:50:47;100139.09;;;8.93;100.00
56928;BME280;60850;52.502;13.426;2024-03-02T01:53:14;100140.84;;;8.94;100.00
56928;BME280;60850;52.502;13.426;2024-03-02T01:55:42;100139.03;;;8.94;100.00
56928;BME280;60850;52.502;13.426;2024-03-02T01:58:10;100136.72;;;8.84;100.00
56928;BME280;60850;52.502;13.426;2024-03-02T02:00:37;100133.88;;;8.90;100.00
56928;BME280;60850;52.502;13.426;2024-03-02T02:03:04;100135.63;;;8.91;100.00
56928;BME280;60850;52.502;13.426;2024-03-02T02:05:32;100126.38;;;9.04;100.00
56928;BME280;60850;52.502;13.426;2024-03-02T02:08:01;100130.13;;;8.97;100.00
56928;BME280;60850;52.502;13.426;2024-03-02T02:10:28;100117.53;;;9.03;100.00
56928;BME280;60850;52.502;13.426;2024-03-02T02:12:55;100113.84;;;9.07;100.00
56928;BME280;60850;52.502;13.426;2024-03-02T02:15:25;100124.34;;;9.12;100.00
56928;BME280;60850;52.502;13.426;2024-03-02T02:17:52;100120.75;;;9.13;100.00
56928;BME280;60850;52.502;13.426;2024-03-02T02:20:19;100120.94;;;9.07;100.00
56928;BME280;60850;52.502;13.426;2024-03-02T02:22:57;100122.16;;;8.97;100.00
56928;BME280;60850;52.502;13.426;2024-03-02T02:25:25;100119.09;;;8.81;100.00
56928;BME280;60850;52.502;13.426;2024-03-02T02:27:52;100109.16;;;8.86;100.00
56928;BME280;60850;52.502;13.426;2024-03-02T02:30:20;100115.34;;;8.88;100.00
56928;BME280;60850;52.502;13.426;2024-03-02T02:32:47;100112.38;;;8.68;100.00
56928;BME280;60850;52.502;13.426;2024-03-02T02:35:14;100128.28;;;8.69;100.00
56928;BME280;60850;52.502;13.426;2024-03-02T02:37:42;100121.56;;;8.56;100.00
56928;BME280;60850;52.502;13.426;2024-03-02T02:40:12;100120.91;;;8.48;100.00
56928;BME280;60850;52.502;13.426;2024-03-02T02:42:39;100135.00;;;8.50;100.00
56928;BME280;60850;52.502;13.426;2024-03-02T02:45:06;100129.03;;;8.42;100.00
56928;BME280;60850;52.502;13.426;2024-03-02T02:47:34;100127.16;;;8.45;100.00
56928;BME280;60850;52.502;13.426;2024-03-02T02:50:02;100132.41;;;8.48;100.00
56928;BME280;60850;52.502;13.426;2024-03-02T02:52:32;100128.06;;;8.46;100.00
56928;BME280;60850;52.502;13.426;2024-03-02T02:55:03;100136.31;;;8.35;100.00
56928;BME280;60850;52.502;13.426;2024-03-02T02:57:31;100133.81;;;8.27;100.00
56928;BME280;60850;52.502;13.426;2024-03-02T03:00:02;100137.44;;;8.25;100.00
56928;BME280;60850;52.502;13.426;2024-03-02T03:02:37;100132.66;;;8.39;100.00
56928;BME280;60850;52.502;13.426;2024-03-02T03:05:05;100139.19;;;8.24;100.00
56928;BME280;60850;52.502;13.426;2024-03-02T03:07:32;100140.00;;;8.28;100.00
56928;BME280;60850;52.502;13.426;2024-03-02T03:10:00;100148.84;;;8.29;100.00
56928;BME280;60850;52.502;13.426;2024-03-02T03:12:29;100146.13;;;8.32;100.00
56928;BME280;60850;52.502;13.426;2024-03-02T03:14:58;100140.66;;;8.38;100.00
56928;BME280;60850;52.502;13.426;2024-03-02T03:17:25;100132.66;;;8.39;100.00
56928;BME280;60850;52.502;13.426;2024-03-02T03:19:53;100133.53;;;8.40;100.00
56928;BME280;60850;52.502;13.426;2024-03-02T03:22:20;100136.31;;;8.35;100.00
56928;BME280;60850;52.502;13.426;2024-03-02T03:24:47;100134.47;;;8.39;100.00
56928;BME280;60850;52.502;13.426;2024-03-02T03:27:14;100133.53;;;8.40;100.00
56928;BME280;60850;52.502;13.426;2024-03-02T03:29:41;100129.03;;;8.42;100.00
56928;BME280;60850;52.502;13.426;2024-03-02T03:32:09;100130.84;;;8.41;100.00
56928;BME280;60850;52.502;13.426;2024-03-02T03:34:36;100129.81;;;8.47;100.00
56928;BME280;60850;52.502;13.426;2024-03-02T03:37:03;100132.47;;;8.45;100.00
56928;BME280;60850;52.502;13.426;2024-03-02T03:39:31;100129.81;;;8.47;100.00
56928;BME280;60850;52.502;13.426;2024-03-02T03:41:57;100134.69;;;8.62;100.00
56928;BME280;60850;52.502;13.426;2024-03-02T03:44:25;100128.94;;;8.45;100.00
56928;BME280;60850;52.502;13.426;2024-03-02T03:46:51;100130.97;;;8.68;100.00
56928;BME280;60850;52.502;13.426;2024-03-02T03:49:20;100129.38;;;8.62;100.00
56928;BME280;60850;52.502;13.426;2024-03-02T03:51:47;100131.06;;;8.65;100.00
56928;BME280;60850;52.502;13.426;2024-03-02T03:54:14;100132.88;;;8.63;100.00
56928;BME280;60850;52.502;13.426;2024-03-02T03:56:41;100126.78;;;8.59;100.00
56928;BME280;60850;52.502;13.426;2024-03-02T03:59:08;100136.50;;;8.60;100.00
56928;BME280;60850;52.502;13.426;2024-03-02T04:01:35;100136.38;;;8.65;100.00
56928;BME280;60850;52.502;13.426;2024-03-02T04:04:02;100141.63;;;8.66;100.00
56928;BME280;60850;52.502;13.426;2024-03-02T04:06:31;100142.75;;;8.58;100.00
56928;BME280;60850;52.502;13.426;2024-03-02T04:08:58;100138.59;;;8.49;100.00
56928;BME280;60850;52.502;13.426;2024-03-02T04:11:25;100140.41;;;8.47;100.00
56928;BME280;60850;52.502;13.426;2024-03-02T04:13:52;100139.34;;;8.52;100.00
56928;BME280;60850;52.502;13.426;2024-03-02T04:16:19;100143.81;;;8.52;100.00
56928;BME280;60850;52.502;13.426;2024-03-02T04:18:46;100146.56;;;8.49;100.00
56928;BME280;60850;52.502;13.426;2024-03-02T04:21:13;100143.25;;;8.41;100.00
56928;BME280;60850;52.502;13.426;2024-03-02T04:23:42;100150.88;;;8.53;100.00
56928;BME280;60850;52.502;13.426;2024-03-02T04:26:09;100144.66;;;8.54;100.00
56928;BME280;60850;52.502;13.426;2024-03-02T04:28:36;100142.00;;;8.52;100.00
56928;BME280;60850;52.502;13.426;2024-03-02T04:31:03;100142.75;;;8.58;100.00
56928;BME280;60850;52.502;13.426;2024-03-02T04:33:30;100140.94;;;8.60;100.00
56928;BME280;60850;52.502;13.426;2024-03-02T04:35:57;100145.38;;;8.59;100.00
56928;BME280;60850;52.502;13.426;2024-03-02T04:38:24;100143.78;;;8.53;100.00
56928;BME280;60850;52.502;13.426;2024-03-02T04:40:53;100142.75;;;8.58;100.00
56928;BME280;60850;52.502;13.426;2024-03-02T04:43:19;100157.50;;;8.69;100.00
56928;BME280;60850;52.502;13.426;2024-03-02T04:45:47;100153.88;;;8.72;100.00
56928;BME280;60850;52.502;13.426;2024-03-02T04:48:13;100162.88;;;8.66;100.00
56928;BME280;60850;52.502;13.426;2024-03-02T04:50:41;100158.03;;;8.82;100.00
56928;BME280;60850;52.502;13.426;2024-03-02T04:53:07;100160.63;;;8.84;100.00
56928;BME280;60850;52.502;13.426;2024-03-02T04:55:35;100160.88;;;8.76;100.00
56928;BME280;60850;52.502;13.426;2024-03-02T04:58:29;100166.81;;;8.84;100.00
56928;BME280;60850;52.502;13.426;2024-03-02T05:00:56;100167.03;;;8.76;100.00
56928;BME280;60850;52.502;13.426;2024-03-02T05:03:23;100175.78;;;8.80;100.00
56928;BME280;60850;52.502;13.426;2024-03-02T05:05:50;100177.47;;;8.84;100.00
56928;BME280;60850;52.502;13.426;2024-03-02T05:08:17;100173.66;;;8.93;100.00
56928;BME280;60850;52.502;13.426;2024-03-02T05:10:44;100179.84;;;8.93;100.00
56928;BME280;60850;52.502;13.426;2024-03-02T05:13:11;100184.13;;;8.99;100.00
56928;BME280;60850;52.502;13.426;2024-03-02T05:15:39;100182.66;;;8.89;100.00
56928;BME280;60850;52.502;13.426;2024-03-02T05:18:06;100181.56;;;8.96;100.00
56928;BME280;60850;52.502;13.426;2024-03-02T05:20:33;100189.75;;;8.88;100.00
56928;BME280;60850;52.502;13.426;2024-03-02T05:23:00;100197.69;;;8.90;100.00
56928;BME280;60850;52.502;13.426;2024-03-02T05:25:27;100191.41;;;8.92;100.00
56928;BME280;60850;52.502;13.426;2024-03-02T05:27:54;100204.56;;;8.97;100.00
56928;BME280;60850;52.502;13.426;2024-03-02T05:30:21;100202.19;;;8.86;100.00
56928;BME280;60850;52.502;13.426;2024-03-02T05:32:50;100202.34;;;8.82;100.00
56928;BME280;60850;52.502;13.426;2024-03-02T05:35:17;100200.84;;;8.71;100.00
56928;BME280;60850;52.502;13.426;2024-03-02T05:37:44;100204.31;;;8.75;100.00
56928;BME280;60850;52.502;13.426;2024-03-02T05:40:11;100206.81;;;8.79;100.00
56928;BME280;60850;52.502;13.426;2024-03-02T05:42:38;100209.63;;;8.73;100.00
56928;BME280;60850;52.502;13.426;2024-03-02T05:45:07;100204.31;;;8.75;100.00
56928;BME280;60850;52.502;13.426;2024-03-02T05:47:34;100210.50;;;8.75;100.00
56928;BME280;60850;52.502;13.426;2024-03-02T05:50:04;100219.38;;;8.74;100.00
56928;BME280;60850;52.502;13.426;2024-03-02T05:52:32;100213.91;;;8.79;100.00
56928;BME280;60850;52.502;13.426;2024-03-02T05:54:59;100224.28;;;8.90;100.00
56928;BME280;60850;52.502;13.426;2024-03-02T05:57:26;100234.25;;;8.82;100.00
56928;BME280;60850;52.502;13.426;2024-03-02T06:00:11;100236.25;;;8.72;100.00
56928;BME280;60850;52.502;13.426;2024-03-02T06:02:41;100227.38;;;8.73;100.00
56928;BME280;60850;52.502;13.426;2024-03-02T06:05:11;100228.38;;;8.69;100.00
56928;BME280;60850;52.502;13.426;2024-03-02T06:07:38;100230.38;;;8.61;100.00
56928;BME280;60850;52.502;13.426;2024-03-02T06:10:06;100235.66;;;8.62;100.00
56928;BME280;60850;52.502;13.426;2024-03-02T06:12:34;100244.34;;;8.69;100.00
56928;BME280;60850;52.502;13.426;2024-03-02T06:15:01;100236.41;;;8.67;100.00
56928;BME280;60850;52.502;13.426;2024-03-02T06:17:29;100233.00;;;8.62;100.00
56928;BME280;60850;52.502;13.426;2024-03-02T06:19:56;100224.75;;;8.71;100.00
56928;BME280;60850;52.502;13.426;2024-03-02T06:22:24;100223.84;;;8.72;100.00
56928;BME280;60850;52.502;13.426;2024-03-02T06:24:51;100232.47;;;8.80;100.00
56928;BME280;60850;52.502;13.426;2024-03-02T06:27:18;100225.34;;;8.83;100.00
56928;BME280;60850;52.502;13.426;2024-03-02T06:29:45;100222.53;;;8.89;100.00
56928;BME280;60850;52.502;13.426;2024-03-02T06:32:14;100228.34;;;9.03;100.00
56928;BME280;60850;52.502;13.426;2024-03-02T06:34:41;100229.41;;;8.96;100.00
56928;BME280;60850;52.502;13.426;2024-03-02T06:37:08;100226.06;;;8.88;100.00
56928;BME280;60850;52.502;13.426;2024-03-02T06:39:36;100226.94;;;8.90;100.00
56928;BME280;60850;52.502;13.426;2024-03-02T06:42:03;100232.06;;;8.96;100.00
56928;BME280;60850;52.502;13.426;2024-03-02T06:44:31;100236.31;;;9.03;100.00
56928;BME280;60850;52.502;13.426;2024-03-02T06:46:57;100236.09;;;9.09;100.00
56928;BME280;60850;52.502;13.426;2024-03-02T06:49:25;100241.19;;;9.18;100.00
56928;BME280;60850;52.502;13.426;2024-03-02T06:51:51;100241.69;;;9.00;100.00
56928;BME280;60850;52.502;13.426;2024-03-02T06:54:19;100238.75;;;9.09;100.00
56928;BME280;60850;52.502;13.426;2024-03-02T06:56:47;100250.41;;;9.05;100.00
56928;BME280;60850;52.502;13.426;2024-03-02T06:59:15;100250.00;;;8.88;100.00
56928;BME280;60850;52.502;13.426;2024-03-02T07:01:46;100251.78;;;8.89;100.00
56928;BME280;60850;52.502;13.426;2024-03-02T07:04:14;100255.16;;;8.94;100.00
56928;BME280;60850;52.502;13.426;2024-03-02T07:06:41;100254.31;;;8.92;100.00
56928;BME280;60850;52.502;13.426;2024-03-02T07:09:08;100257.03;;;8.90;100.00
56928;BME280;60850;52.502;13.426;2024-03-02T07:11:36;100254.97;;;9.00;100.00
56928;BME280;60850;52.502;13.426;2024-03-02T07:14:05;100263.13;;;8.94;100.00
56928;BME280;60850;52.502;13.426;2024-03-02T07:16:33;100261.56;;;8.87;100.00
56928;BME280;60850;52.502;13.426;2024-03-02T07:19:01;100248.75;;;9.01;100.00
56928;BME280;60850;52.502;13.426;2024-03-02T07:21:28;100250.41;;;9.05;100.00
56928;BME280;60850;52.502;13.426;2024-03-02T07:23:55;100255.81;;;9.02;100.00
56928;BME280;60850;52.502;13.426;2024-03-02T07:26:22;100259.22;;;9.07;100.00
56928;BME280;60850;52.502;13.426;2024-03-02T07:28:49;100265.94;;;8.88;100.00
56928;BME280;60850;52.502;13.426;2024-03-02T07:31:18;100270.06;;;8.99;100.00
56928;BME280;60850;52.502;13.426;2024-03-02T07:33:45;100276.09;;;9.06;100.00
56928;BME280;60850;52.502;13.426;2024-03-02T07:36:13;100270.78;;;9.06;100.00
56928;BME280;60850;52.502;13.426;2024-03-02T07:38:40;100277.97;;;9.02;100.00
56928;BME280;60850;52.502;13.426;2024-03-02T07:41:07;100288.03;;;8.91;100.00
56928;BME280;60850;52.502;13.426;2024-03-02T07:43:37;100290.31;;;9.05;100.00
56928;BME280;60850;52.502;13.426;2024-03-02T07:46:04;100307.44;;;8.93;100.00
56928;BME280;60850;52.502;13.426;2024-03-02T07:48:33;100296.72;;;8.98;100.00
56928;BME280;60850;52.502;13.426;2024-03-02T07:51:00;100308.03;;;9.04;100.00
56928;BME280;60850;52.502;13.426;2024-03-02T07:53:28;100318.34;;;8.84;100.00
56928;BME280;60850;52.502;13.426;2024-03-02T07:55:56;100310.97;;;8.94;100.00
56928;BME280;60850;52.502;13.426;2024-03-02T07:58:28;100314.31;;;9.02;100.00
56928;BME280;60850;52.502;13.426;2024-03-02T08:00:56;100315.88;;;9.09;100.00
56928;BME280;60850;52.502;13.426;2024-03-02T08:03:23;100318.03;;;8.95;100.00
56928;BME280;60850;52.502;13.426;2024-03-02T08:05:52;100311.91;;;8.93;100.00
56928;BME280;60850;52.502;13.426;2024-03-02T08:08:19;100322.22;;;9.05;100.00
56928;BME280;60850;52.502;13.426;2024-03-02T08:10:46;100319.44;;;9.10;100.00
56928;BME280;60850;52.502;13.426;2024-03-02T08:13:13;100318.75;;;9.01;100.00
56928;BME280;60850;52.502;13.426;2024-03-02T08:15:40;100331.94;;;9.06;100.00
56928;BME280;60850;52.502;13.426;2024-03-02T08:18:07;100333.75;;;9.04;100.00
56928;BME280;60850;52.502;13.426;2024-03-02T08:20:34;100333.94;;;8.98;100.00
56928;BME280;60850;52.502;13.426;2024-03-02T08:23:03;100335.41;;;9.08;100.00
56928;BME280;60850;52.502;13.426;2024-03-02T08:25:30;100331.16;;;9.02;100.00
56928;BME280;60850;52.502;13.426;2024-03-02T08:27:57;100335.56;;;9.02;100.00
56928;BME280;60850;52.502;13.426;2024-03-02T08:30:24;100334.38;;;9.14;100.00
56928;BME280;60850;52.502;13.426;2024-03-02T08:32:52;100334.44;;;9.12;100.00
56928;BME280;60850;52.502;13.426;2024-03-02T08:35:18;100339.00;;;9.07;100.00
56928;BME280;60850;52.502;13.426;2024-03-02T08:37:48;100345.84;;;9.16;100.00
56928;BME280;60850;52.502;13.426;2024-03-02T08:40:16;100342.59;;;9.37;100.00
56928;BME280;60850;52.502;13.426;2024-03-02T08:42:43;100332.16;;;9.29;100.00
56928;BME280;60850;52.502;13.426;2024-03-02T08:45:11;100340.34;;;9.23;100.00
56928;BME280;60850;52.502;13.426;2024-03-02T08:47:39;100328.81;;;9.23;100.00
56928;BME280;60850;52.502;13.426;2024-03-02T08:50:07;100342.31;;;9.15;100.00
56928;BME280;60850;52.502;13.426;2024-03-02T08:52:35;100337.91;;;9.14;100.00
56928;BME280;60850;52.502;13.426;2024-03-02T08:55:02;100337.69;;;9.23;100.00
56928;BME280;60850;52.502;13.426;2024-03-02T08:57:31;100337.97;;;9.44;100.00
56928;BME280;60850;52.502;13.426;2024-03-02T08:59:58;100343.59;;;9.33;100.00
56928;BME280;60850;52.502;13.426;2024-03-02T09:02:26;100341.81;;;9.33;100.00
56928;BME280;60850;52.502;13.426;2024-03-02T09:04:53;100342.63;;;9.35;100.00
56928;BME280;60850;52.502;13.426;2024-03-02T09:07:20;100348.94;;;9.33;100.00
56928;BME280;60850;52.502;13.426;2024-03-02T09:09:46;100347.91;;;9.39;100.00
56928;BME280;60850;52.502;13.426;2024-03-02T09:12:14;100361.41;;;9.31;100.00
56928;BME280;60850;52.502;13.426;2024-03-02T09:14:42;100348.94;;;9.33;100.00
56928;BME280;60850;52.502;13.426;2024-03-02T09:17:10;100356.09;;;9.29;100.00
56928;BME280;60850;52.502;13.426;2024-03-02T09:19:37;100363.00;;;9.36;100.00
56928;BME280;60850;52.502;13.426;2024-03-02T09:22:05;100375.66;;;9.28;100.00
56928;BME280;60850;52.502;13.426;2024-03-02T09:24:32;100373.56;;;9.40;100.00
56928;BME280;60850;52.502;13.426;2024-03-02T09:27:00;100362.84;;;9.43;100.00
56928;BME280;60850;52.502;13.426;2024-03-02T09:29:27;100365.97;;;9.57;100.00
56928;BME280;60850;52.502;13.426;2024-03-02T09:31:55;100365.97;;;9.57;100.00
56928;BME280;60850;52.502;13.426;2024-03-02T09:34:22;100359.88;;;9.53;100.00
56928;BME280;60850;52.502;13.426;2024-03-02T09:36:50;100360.53;;;9.61;100.00
56928;BME280;60850;52.502;13.426;2024-03-02T09:39:17;100356.03;;;9.93;100.00
56928;BME280;60850;52.502;13.426;2024-03-02T09:41:45;100355.16;;;9.94;100.00
56928;BME280;60850;52.502;13.426;2024-03-02T09:44:12;100355.38;;;10.16;100.00
56928;BME280;60850;52.502;13.426;2024-03-02T09:46:39;100351.44;;;10.29;100.00
56928;BME280;60850;52.502;13.426;2024-03-02T09:49:10;100356.53;;;10.35;100.00
56928;BME280;60850;52.502;13.426;2024-03-02T09:51:38;100346.56;;;10.42;100.00
56928;BME280;60850;52.502;13.426;2024-03-02T09:54:07;100356.78;;;10.56;100.00
56928;BME280;60850;52.502;13.426;2024-03-02T09:56:34;100351.38;;;10.59;100.00
56928;BME280;60850;52.502;13.426;2024-03-02T09:59:01;100348.50;;;10.65;100.00
56928;BME280;60850;52.502;13.426;2024-03-02T10:01:29;100355.06;;;10.81;100.00
56928;BME280;60850;52.502;13.426;2024-03-02T10:03:58;100353.53;;;10.74;100.00
56928;BME280;60850;52.502;13.426;2024-03-02T10:06:28;100354.72;;;10.64;100.00
56928;BME280;60850;52.502;13.426;2024-03-02T10:08:55;100362.94;;;10.84;100.00
56928;BME280;60850;52.502;13.426;2024-03-02T10:11:27;100358.69;;;11.05;100.00
56928;BME280;60850;52.502;13.426;2024-03-02T10:14:04;100360.59;;;11.02;100.00
56928;BME280;60850;52.502;13.426;2024-03-02T10:16:35;100362.38;;;11.26;100.00
56928;BME280;60850;52.502;13.426;2024-03-02T10:19:18;100360.88;;;11.19;100.00
56928;BME280;60850;52.502;13.426;2024-03-02T10:21:48;100360.50;;;11.30;100.00
56928;BME280;60850;52.502;13.426;2024-03-02T10:24:16;100361.25;;;11.58;100.00
56928;BME280;60850;52.502;13.426;2024-03-02T10:26:43;100359.00;;;11.71;100.00
56928;BME280;60850;52.502;13.426;2024-03-02T10:29:11;100353.53;;;11.50;100.00
56928;BME280;60850;52.502;13.426;2024-03-02T10:31:40;100356.19;;;11.50;100.00
56928;BME280;60850;52.502;13.426;2024-03-02T10:34:08;100352.16;;;11.64;100.00
56928;BME280;60850;52.502;13.426;2024-03-02T10:36:37;100345.94;;;11.63;100.00
56928;BME280;60850;52.502;13.426;2024-03-02T10:39:06;100348.19;;;11.50;100.00
56928;BME280;60850;52.502;13.426;2024-03-02T10:41:34;100351.06;;;11.44;100.00
56928;BME280;60850;52.502;13.426;2024-03-02T10:44:03;100346.56;;;11.70;100.00
56928;BME280;60850;52.502;13.426;2024-03-02T10:46:31;100342.03;;;11.72;100.00
56928;BME280;60850;52.502;13.426;2024-03-02T10:48:59;100342.84;;;11.74;100.00
56928;BME280;60850;52.502;13.426;2024-03-02T10:51:27;100340.88;;;11.79;100.00
56928;BME280;60850;52.502;13.426;2024-03-02T10:53:57;100338.81;;;11.87;100.00
56928;BME280;60850;52.502;13.426;2024-03-02T10:56:30;100342.88;;;11.97;100.00
56928;BME280;60850;52.502;13.426;2024-03-02T10:59:02;100342.13;;;11.94;100.00
56928;BME280;60850;52.502;13.426;2024-03-02T11:01:31;100337.88;;;11.88;100.00
56928;BME280;60850;52.502;13.426;2024-03-02T11:03:59;100341.59;;;12.07;100.00
56928;BME280;60850;52.502;13.426;2024-03-02T11:06:33;100337.66;;;11.94;100.00
56928;BME280;60850;52.502;13.426;2024-03-02T11:09:04;100341.84;;;12.01;100.00
56928;BME280;60850;52.502;13.426;2024-03-02T11:11:43;100339.88;;;12.06;100.00
56928;BME280;60850;52.502;13.426;2024-03-02T11:14:13;100342.72;;;12.24;100.00
56928;BME280;60850;52.502;13.426;2024-03-02T11:16:43;100336.63;;;11.98;100.00
56928;BME280;60850;52.502;13.426;2024-03-02T11:19:12;100332.41;;;12.15;100.00
56928;BME280;60850;52.502;13.426;2024-03-02T11:21:43;100333.16;;;12.40;100.00
56928;BME280;60850;52.502;13.426;2024-03-02T11:24:28;100333.44;;;12.34;100.00
56928;BME280;60850;52.502;13.426;2024-03-02T11:27:02;100328.81;;;12.59;100.00
56928;BME280;60850;52.502;13.426;2024-03-02T11:29:46;100339.47;;;12.81;100.00
56928;BME280;60850;52.502;13.426;2024-03-02T11:32:17;100342.72;;;12.68;100.00
56928;BME280;60850;52.502;13.426;2024-03-02T11:34:50;100348.69;;;12.74;100.00
56928;BME280;60850;52.502;13.426;2024-03-02T11:37:18;100338.53;;;12.62;100.00
56928;BME280;60850;52.502;13.426;2024-03-02T11:39:49;100340.63;;;12.76;100.00
56928;BME280;60850;52.502;13.426;2024-03-02T11:42:18;100340.16;;;12.86;100.00
56928;BME280;60850;52.502;13.426;2024-03-02T11:44:46;100336.94;;;12.78;100.00
56928;BME280;60850;52.502;13.426;2024-03-02T11:47:15;100340.97;;;12.67;100.00
56928;BME280;60850;52.502;13.426;2024-03-02T11:49:44;100338.16;;;12.49;100.00
56928;BME280;60850;52.502;13.426;2024-03-02T11:52:13;100340.19;;;12.64;100.00
56928;BME280;60850;52.502;13.426;2024-03-02T11:54:41;100336.66;;;12.42;100.00
56928;BME280;60850;52.502;13.426;2024-03-02T11:57:12;100340.19;;;12.64;100.00
56928;BME280;60850;52.502;13.426;2024-03-02T11:59:41;100341.22;;;12.82;100.00
56928;BME280;60850;52.502;13.426;2024-03-02T12:02:14;100339.09;;;12.90;100.00
56928;BME280;60850;52.502;13.426;2024-03-02T12:04:42;100343.66;;;12.67;100.00
56928;BME280;60850;52.502;13.426;2024-03-02T12:07:11;100337.72;;;12.80;100.00
56928;BME280;60850;52.502;13.426;2024-03-02T12:09:38;100334.28;;;12.99;100.00
56928;BME280;60850;52.502;13.426;2024-03-02T12:12:06;100331.97;;;13.11;100.00
56928;BME280;60850;52.502;13.426;2024-03-02T12:14:35;100324.06;;;13.29;100.00
56928;BME280;60850;52.502;13.426;2024-03-02T12:17:05;100328.09;;;13.18;100.00
56928;BME280;60850;52.502;13.426;2024-03-02T12:19:32;100330.56;;;13.23;100.00
56928;BME280;60850;52.502;13.426;2024-03-02T12:22:00;100323.84;;;13.13;100.00
56928;BME280;60850;52.502;13.426;2024-03-02T12:24:29;100322.19;;;13.31;100.00
56928;BME280;60850;52.502;13.426;2024-03-02T12:26:57;100319.28;;;13.15;100.00
56928;BME280;60850;52.502;13.426;2024-03-02T12:29:24;100318.69;;;13.08;100.00
56928;BME280;60850;52.502;13.426;2024-03-02T12:31:52;100317.44;;;13.37;100.00
56928;BME280;60850;52.502;13.426;2024-03-02T12:34:21;100321.25;;;13.11;100.00
56928;BME280;60850;52.502;13.426;2024-03-02T12:36:49;100315.09;;;13.30;100.00
56928;BME280;60850;52.502;13.426;2024-03-02T12:39:19;100322.28;;;13.29;100.00
56928;BME280;60850;52.502;13.426;2024-03-02T12:41:49;100315.19;;;13.28;100.00
56928;BME280;60850;52.502;13.426;2024-03-02T12:44:17;100308.31;;;13.62;100.00